Terminal Aerodrome Forecast
Issued by NWS

Home | Current Version | Previous Version | Text Only | Print | Product List | Glossary On
Versions: 1 2 3 4 5 6 7 8 9 10 11 12 13 14 15 16 17 18 19 20 21 22 23
000
FTUS44 KLIX 201129
TAFHDC
TAF
KHDC 201129Z 2012/2112 00000KT P6SM SCT003 BKN027 OVC040
      TEMPO 2012/2013 1/4SM FG VV003
     FM201400 21006KT P6SM BKN022
     FM201700 22008KT P6SM SCT035 BKN120
     FM210200 20006KT P6SM SCT035 BKN050
     FM210400 20010KT 4SM TSRA BR BKN025CB
     FM211000 23008KT 6SM -RA BR SCT005 OVC020=

USA.gov is the U.S. government's official web portal to all federal, state and local government web resources and services.